createdAt,value
2019-01-17T00:02:44.738Z,5.72
2019-01-17T00:08:06.298Z,5.75
2019-01-17T00:13:30.820Z,3.98
2019-01-17T00:19:02.000Z,8.10
2019-01-17T00:24:36.669Z,4.97
2019-01-17T00:30:13.919Z,7.42
2019-01-17T00:35:53.868Z,3.98
2019-01-17T00:41:15.788Z,4.92
2019-01-17T00:46:40.307Z,4.05
2019-01-17T00:52:03.077Z,5.75
2019-01-17T00:57:27.650Z,5.65
2019-01-17T01:03:10.179Z,6.08
2019-01-17T01:08:40.109Z,5.45
2019-01-17T01:13:58.278Z,3.75
2019-01-17T01:19:28.188Z,4.55
2019-01-17T01:24:50.348Z,3.30
2019-01-17T01:30:14.039Z,5.87
2019-01-17T01:35:37.148Z,6.47
2019-01-17T01:41:03.030Z,4.72
2019-01-17T01:46:39.539Z,4.25
2019-01-17T01:52:03.968Z,5.80
2019-01-17T01:57:09.708Z,4.58
2019-01-17T02:02:15.579Z,4.22
2019-01-17T02:07:21.114Z,5.17
2019-01-17T02:12:26.698Z,4.33
2019-01-17T02:17:32.371Z,4.45
2019-01-17T02:22:37.978Z,5.15
2019-01-17T02:27:43.968Z,4.87
2019-01-17T02:32:49.732Z,3.40
2019-01-17T02:37:55.189Z,4.50
2019-01-17T02:43:00.681Z,3.87
2019-01-17T02:48:07.935Z,5.08
2019-01-17T02:53:13.769Z,4.40
2019-01-17T02:58:19.648Z,4.30
2019-01-17T03:03:25.408Z,4.37
2019-01-17T03:08:31.128Z,3.85
2019-01-17T03:13:36.979Z,4.87
2019-01-17T03:18:43.308Z,3.62
2019-01-17T03:23:49.428Z,4.60
2019-01-17T03:28:55.049Z,2.83
2019-01-17T03:34:01.588Z,3.33
2019-01-17T03:39:08.398Z,3.33
2019-01-17T03:44:14.268Z,5.35
2019-01-17T03:49:19.943Z,4.95
2019-01-17T03:54:26.049Z,2.95
2019-01-17T03:59:31.680Z,3.70
2019-01-17T04:04:37.230Z,3.62
2019-01-17T04:09:43.592Z,4.00
2019-01-17T04:14:50.414Z,3.25
2019-01-17T04:19:56.005Z,2.95
2019-01-17T04:25:01.653Z,2.92
2019-01-17T04:30:11.772Z,3.10
2019-01-17T04:35:17.297Z,3.40
2019-01-17T04:40:23.102Z,2.83
2019-01-17T04:45:28.772Z,3.80
2019-01-17T04:50:34.762Z,3.05
2019-01-17T04:55:40.653Z,4.08
2019-01-17T05:00:46.733Z,2.95
2019-01-17T05:05:52.780Z,2.77
2019-01-17T05:10:58.903Z,3.10
2019-01-17T05:16:04.472Z,3.87
2019-01-17T05:21:10.242Z,2.98
2019-01-17T05:26:15.983Z,3.10
2019-01-17T05:31:21.572Z,3.42
2019-01-17T05:36:37.110Z,3.15
2019-01-17T05:41:42.955Z,2.62
2019-01-17T05:46:48.751Z,2.35
2019-01-17T05:51:54.482Z,2.98
2019-01-17T05:57:01.182Z,2.62
2019-01-17T06:02:07.179Z,2.70
2019-01-17T06:07:16.704Z,2.70
2019-01-17T06:12:22.213Z,2.27
2019-01-17T06:17:28.232Z,2.77
2019-01-17T06:22:34.391Z,2.10
2019-01-17T06:27:39.971Z,2.20
2019-01-17T06:32:46.283Z,2.33
2019-01-17T06:37:51.783Z,2.20
2019-01-17T06:42:58.063Z,3.55
2019-01-17T06:48:03.751Z,2.70
2019-01-17T06:53:09.682Z,2.45
2019-01-17T06:58:15.292Z,3.72
2019-01-17T07:03:22.133Z,2.52
2019-01-17T07:08:27.702Z,7.75
2019-01-17T07:13:34.853Z,5.83
2019-01-17T07:18:40.772Z,3.70
2019-01-17T07:23:46.662Z,3.22
2019-01-17T07:28:52.293Z,3.08
2019-01-17T07:33:59.162Z,2.10
2019-01-17T07:39:06.734Z,4.12
2019-01-17T07:44:12.322Z,4.95
2019-01-17T07:49:17.843Z,3.10
2019-01-17T07:54:23.442Z,12.88
2019-01-17T07:59:28.913Z,8.25
2019-01-17T08:04:34.872Z,7.50
2019-01-17T08:09:40.842Z,9.48
2019-01-17T08:14:46.622Z,8.58
2019-01-17T08:19:52.664Z,7.55
2019-01-17T08:24:58.196Z,5.55
2019-01-17T08:30:06.022Z,5.22
2019-01-17T08:35:12.194Z,5.50
2019-01-17T08:40:27.063Z,6.60
2019-01-17T08:45:33.862Z,7.30
2019-01-17T08:50:39.896Z,9.48
2019-01-17T08:55:45.782Z,2.92
2019-01-17T09:00:51.814Z,5.67
2019-01-17T09:05:58.542Z,5.62
2019-01-17T09:11:04.327Z,6.62
2019-01-17T09:16:10.103Z,3.12
2019-01-17T09:21:15.721Z,8.20
2019-01-17T09:26:21.783Z,3.72
2019-01-17T09:31:27.622Z,11.25
2019-01-17T09:36:33.602Z,8.98
2019-01-17T09:41:39.302Z,11.43
2019-01-17T09:46:45.122Z,13.72
2019-01-17T09:51:50.792Z,13.40
2019-01-17T09:56:56.662Z,11.50
2019-01-17T10:02:02.391Z,9.20
2019-01-17T10:07:08.333Z,11.45
2019-01-17T10:12:14.122Z,13.08
2019-01-17T10:17:47.872Z,10.10
2019-01-17T10:23:35.012Z,9.13
2019-01-17T10:29:10.013Z,8.85
2019-01-17T10:34:51.890Z,10.38
2019-01-17T10:40:41.572Z,13.10
2019-01-17T10:46:40.103Z,11.75
2019-01-17T10:52:39.333Z,11.25
2019-01-17T10:58:07.654Z,9.13
2019-01-17T11:03:41.775Z,7.80
2019-01-17T11:09:33.815Z,9.53
2019-01-17T11:14:54.702Z,10.45
2019-01-17T11:20:48.582Z,10.40
2019-01-17T11:26:23.213Z,6.67
2019-01-17T11:32:08.541Z,9.78
2019-01-17T11:37:51.013Z,10.72
2019-01-17T11:43:25.031Z,26.68
2019-01-17T11:49:12.635Z,9.48
2019-01-17T11:54:47.142Z,8.65
2019-01-17T12:00:31.942Z,16.90
2019-01-17T12:05:37.743Z,15.60
2019-01-17T12:10:43.363Z,8.18
2019-01-17T12:15:49.144Z,7.75
2019-01-17T12:20:54.845Z,8.13
2019-01-17T12:26:00.734Z,10.55
2019-01-17T12:31:06.562Z,25.10
2019-01-17T12:36:12.874Z,11.28
2019-01-17T12:41:19.824Z,16.00
2019-01-17T12:46:26.212Z,14.58
2019-01-17T12:51:32.072Z,10.13
2019-01-17T12:56:38.635Z,11.68
2019-01-17T13:01:43.980Z,27.37
2019-01-17T13:06:50.172Z,8.45
2019-01-17T13:11:57.243Z,10.65
2019-01-17T13:17:03.130Z,8.43
2019-01-17T13:22:09.072Z,8.65
2019-01-17T13:27:14.342Z,5.72
2019-01-17T13:32:19.923Z,6.15
2019-01-17T13:37:26.613Z,8.58
2019-01-17T13:42:33.563Z,5.72
2019-01-17T13:47:39.293Z,4.83
2019-01-17T13:52:45.792Z,6.45
2019-01-17T13:57:52.602Z,2.85
2019-01-17T14:02:59.502Z,5.10
2019-01-17T14:08:06.322Z,5.35
2019-01-17T14:13:11.968Z,3.98
2019-01-17T14:18:17.903Z,4.80
2019-01-17T14:23:23.522Z,6.40
2019-01-17T14:28:29.662Z,6.08
2019-01-17T14:33:36.745Z,4.55
2019-01-17T14:38:43.023Z,13.62
2019-01-17T14:43:49.032Z,10.00
2019-01-17T14:48:55.132Z,7.10
2019-01-17T14:54:02.414Z,5.25
2019-01-17T14:59:08.773Z,11.12
2019-01-17T15:04:14.713Z,5.65
2019-01-17T15:09:21.544Z,6.87
2019-01-17T15:14:27.481Z,10.32
2019-01-17T15:19:34.232Z,6.62
2019-01-17T15:24:40.074Z,8.88
2019-01-17T15:29:48.962Z,9.08
2019-01-17T15:34:54.764Z,7.80
2019-01-17T15:40:01.113Z,12.90
2019-01-17T15:45:08.262Z,6.53
2019-01-17T15:50:14.392Z,3.37
2019-01-17T15:55:21.046Z,7.83
2019-01-17T16:00:32.049Z,9.28
2019-01-17T16:05:38.222Z,13.85
2019-01-17T16:10:44.372Z,20.75
2019-01-17T16:15:50.221Z,9.93
2019-01-17T16:20:56.202Z,10.18
2019-01-17T16:26:02.933Z,9.73
2019-01-17T16:31:09.843Z,5.58
2019-01-17T16:36:16.143Z,8.43
2019-01-17T16:41:22.203Z,4.00
2019-01-17T16:46:28.162Z,5.83
2019-01-17T16:51:34.512Z,5.47
2019-01-17T16:56:40.223Z,3.62
2019-01-17T17:01:46.542Z,3.85
2019-01-17T17:06:52.302Z,3.75
2019-01-17T17:12:00.253Z,3.67
2019-01-17T17:17:06.463Z,4.35
2019-01-17T17:22:12.502Z,2.10
2019-01-17T17:27:19.502Z,3.85
2019-01-17T17:32:25.403Z,3.92
2019-01-17T17:37:31.775Z,2.33
2019-01-17T17:42:38.153Z,4.55
2019-01-17T17:47:46.012Z,3.12
2019-01-17T17:52:51.632Z,6.35
2019-01-17T17:58:02.142Z,6.92
2019-01-17T18:03:04.882Z,7.40
2019-01-17T18:08:11.133Z,5.03
2019-01-17T18:13:18.625Z,7.75
2019-01-17T18:18:24.394Z,4.25
2019-01-17T18:23:30.862Z,4.83
2019-01-17T18:28:37.973Z,5.17
2019-01-17T18:33:43.883Z,3.75
2019-01-17T18:38:50.521Z,2.83
2019-01-17T18:43:57.572Z,5.05
2019-01-17T18:49:03.334Z,3.67
2019-01-17T18:54:09.523Z,9.95
2019-01-17T18:59:16.043Z,8.60
2019-01-17T19:04:21.826Z,4.28
2019-01-17T19:09:29.122Z,4.70
2019-01-17T19:14:34.753Z,3.35
2019-01-17T19:19:40.952Z,8.53
2019-01-17T19:24:47.243Z,8.65
2019-01-17T19:29:53.335Z,5.30
2019-01-17T19:34:59.172Z,4.17
2019-01-17T19:40:05.822Z,6.60
2019-01-17T19:45:12.202Z,7.33
2019-01-17T19:50:43.143Z,7.47
2019-01-17T19:55:49.174Z,3.62
2019-01-17T20:00:55.420Z,2.67
2019-01-17T20:06:01.392Z,5.78
2019-01-17T20:11:07.241Z,10.32
2019-01-17T20:16:13.692Z,5.90
2019-01-17T20:21:19.453Z,5.25
2019-01-17T20:26:25.213Z,3.08
2019-01-17T20:31:31.532Z,2.15
2019-01-17T20:36:37.574Z,5.10
2019-01-17T20:41:43.702Z,2.55
2019-01-17T20:46:50.193Z,3.15
2019-01-17T20:51:56.491Z,2.92
2019-01-17T20:57:02.933Z,2.85
2019-01-17T21:02:17.913Z,2.77
2019-01-17T21:07:24.385Z,5.40
2019-01-17T21:12:30.920Z,2.58
2019-01-17T21:17:38.894Z,2.83
2019-01-17T21:22:44.872Z,3.70
2019-01-17T21:27:50.711Z,1.52
2019-01-17T21:32:57.012Z,1.90
2019-01-17T21:38:03.071Z,1.92
2019-01-17T21:43:08.992Z,2.55
2019-01-17T21:48:15.914Z,2.65
2019-01-17T21:53:22.192Z,2.40
2019-01-17T21:58:28.101Z,2.70
2019-01-17T22:03:52.683Z,4.45
2019-01-17T22:08:58.582Z,3.58
2019-01-17T22:14:05.282Z,2.20
2019-01-17T22:19:11.519Z,0.90
2019-01-17T22:24:18.052Z,2.00
2019-01-17T22:29:24.361Z,0.80
2019-01-17T22:34:30.794Z,2.58
2019-01-17T22:39:37.133Z,1.87
2019-01-17T22:44:44.042Z,3.30
2019-01-17T22:49:50.432Z,2.22
2019-01-17T22:54:56.255Z,1.85
2019-01-17T23:00:05.723Z,3.05
2019-01-17T23:05:12.303Z,1.30
2019-01-17T23:10:18.113Z,0.80
2019-01-17T23:15:24.423Z,2.47
2019-01-17T23:20:30.862Z,1.15
2019-01-17T23:25:36.882Z,0.60
2019-01-17T23:30:43.120Z,0.90
2019-01-17T23:35:49.271Z,1.32
2019-01-17T23:40:55.605Z,1.55
2019-01-17T23:46:01.732Z,3.20
2019-01-17T23:51:07.801Z,0.90
2019-01-17T23:56:14.782Z,1.05
